createdAt,value
2019-03-17T00:01:32.697Z,99397.08
2019-03-17T00:04:00.942Z,99394.55
2019-03-17T00:06:29.163Z,99386.06
2019-03-17T00:08:57.401Z,99388.88
2019-03-17T00:11:25.618Z,99380.67
2019-03-17T00:13:53.852Z,99380.03
2019-03-17T00:16:22.090Z,99374.50
2019-03-17T00:18:50.304Z,99380.08
2019-03-17T00:21:18.527Z,99373.90
2019-03-17T00:23:46.738Z,99360.20
2019-03-17T00:26:14.944Z,99356.93
2019-03-17T00:28:44.356Z,99341.99
2019-03-17T00:31:23.133Z,99346.70
2019-03-17T00:33:42.724Z,99340.07
2019-03-17T00:36:10.944Z,99339.70
2019-03-17T00:38:39.151Z,99335.63
2019-03-17T00:41:07.469Z,99333.14
2019-03-17T00:43:36.344Z,99338.49
2019-03-17T00:46:04.569Z,99333.20
2019-03-17T00:48:32.783Z,99329.70
2019-03-17T00:51:01.008Z,99327.66
2019-03-17T00:53:29.228Z,99311.75
2019-03-17T00:55:57.435Z,99235.84
2019-03-17T00:58:25.653Z,99296.86
2019-03-17T01:00:53.857Z,99306.09
2019-03-17T01:03:22.082Z,99301.33
2019-03-17T01:05:50.293Z,99307.32
2019-03-17T01:08:18.539Z,99290.73
2019-03-17T01:10:46.741Z,99293.67
2019-03-17T01:13:14.952Z,99268.14
2019-03-17T01:15:43.167Z,99262.02
2019-03-17T01:18:11.383Z,99275.39
2019-03-17T01:20:39.599Z,99264.50
2019-03-17T01:23:07.839Z,99264.00
2019-03-17T01:25:36.650Z,99256.67
2019-03-17T01:28:04.873Z,99252.70
2019-03-17T01:30:33.081Z,99257.87
2019-03-17T01:33:01.315Z,99260.73
2019-03-17T01:35:32.423Z,99262.02
2019-03-17T01:37:59.471Z,99261.13
2019-03-17T01:40:27.684Z,99248.91
2019-03-17T01:42:55.893Z,99215.23
2019-03-17T01:45:24.104Z,99250.30
2019-03-17T01:47:52.342Z,99258.92
2019-03-17T01:50:20.558Z,99239.60
2019-03-17T01:52:48.773Z,99237.44
2019-03-17T01:55:17.002Z,99228.16
2019-03-17T01:57:45.234Z,99233.42
2019-03-17T02:00:13.816Z,99229.88
2019-03-17T02:02:42.026Z,99216.69
2019-03-17T02:05:21.292Z,99212.37
2019-03-17T02:07:40.175Z,99205.63
2019-03-17T02:10:08.871Z,99213.84
2019-03-17T02:12:37.084Z,99197.09
2019-03-17T02:15:07.334Z,99194.29
2019-03-17T02:17:35.544Z,99196.08
2019-03-17T02:20:05.172Z,99192.87
2019-03-17T02:22:33.343Z,99196.95
2019-03-17T02:25:01.559Z,99182.19
2019-03-17T02:27:29.772Z,99182.19
2019-03-17T02:29:57.980Z,99184.66
2019-03-17T02:32:26.199Z,99182.88
2019-03-17T02:34:54.410Z,99177.16
2019-03-17T02:37:22.636Z,99175.11
2019-03-17T02:39:50.873Z,99179.73
2019-03-17T02:42:19.058Z,99169.64
2019-03-17T02:44:47.300Z,99156.27
2019-03-17T02:47:15.514Z,99172.77
2019-03-17T02:49:43.722Z,99165.02
2019-03-17T02:52:11.936Z,99165.66
2019-03-17T02:54:40.156Z,99150.89
2019-03-17T02:57:08.366Z,99160.06
2019-03-17T02:59:37.012Z,99150.13
2019-03-17T03:02:05.225Z,99152.48
2019-03-17T03:04:33.444Z,99162.16
2019-03-17T03:07:01.665Z,99148.66
2019-03-17T03:09:29.897Z,99162.92
2019-03-17T03:11:58.116Z,99152.57
2019-03-17T03:14:26.328Z,99157.73
2019-03-17T03:16:54.559Z,99151.48
2019-03-17T03:19:22.773Z,99152.34
2019-03-17T03:21:50.986Z,99142.88
2019-03-17T03:24:19.211Z,99139.47
2019-03-17T03:26:47.431Z,99135.03
2019-03-17T03:29:15.627Z,99137.70
2019-03-17T03:31:43.864Z,99122.38
2019-03-17T03:34:12.089Z,99124.98
2019-03-17T03:36:40.291Z,99122.23
2019-03-17T03:39:08.523Z,99115.56
2019-03-17T03:41:37.319Z,99113.83
2019-03-17T03:44:05.533Z,99118.84
2019-03-17T03:46:33.762Z,99122.80
2019-03-17T03:49:01.997Z,99120.38
2019-03-17T03:51:30.235Z,99116.87
2019-03-17T03:53:58.471Z,99111.58
2019-03-17T03:56:26.670Z,99108.72
2019-03-17T03:58:54.921Z,99107.39
2019-03-17T04:01:23.122Z,99114.48
2019-03-17T04:03:51.332Z,99120.64
2019-03-17T04:06:26.534Z,99117.97
2019-03-17T04:08:49.531Z,99105.67
2019-03-17T04:11:17.740Z,99105.48
2019-03-17T04:13:45.962Z,99099.09
2019-03-17T04:16:14.180Z,99098.03
2019-03-17T04:18:42.398Z,99090.72
2019-03-17T04:21:10.645Z,99092.00
2019-03-17T04:23:38.860Z,99074.84
2019-03-17T04:26:07.413Z,99085.70
2019-03-17T04:28:35.628Z,99079.53
2019-03-17T04:31:03.837Z,99076.36
2019-03-17T04:33:32.057Z,99049.67
2019-03-17T04:36:00.654Z,99065.96
2019-03-17T04:38:28.860Z,99058.70
2019-03-17T04:40:57.090Z,99057.95
2019-03-17T04:43:25.374Z,99068.31
2019-03-17T04:45:53.597Z,99056.11
2019-03-17T04:48:21.815Z,99042.52
2019-03-17T04:50:50.032Z,99056.52
2019-03-17T04:53:18.326Z,99054.86
2019-03-17T04:55:46.623Z,99039.34
2019-03-17T04:58:14.842Z,99047.74
2019-03-17T05:00:43.070Z,99066.86
2019-03-17T05:03:11.286Z,99069.98
2019-03-17T05:05:39.493Z,99063.77
2019-03-17T05:08:07.707Z,99063.13
2019-03-17T05:10:35.913Z,99061.14
2019-03-17T05:13:04.134Z,99066.77
2019-03-17T05:15:32.349Z,99061.53
2019-03-17T05:18:00.564Z,99063.31
2019-03-17T05:20:28.784Z,99057.02
2019-03-17T05:22:57.004Z,99057.47
2019-03-17T05:25:25.223Z,99030.84
2019-03-17T05:27:53.471Z,99030.84
2019-03-17T05:30:21.685Z,99061.22
2019-03-17T05:32:49.910Z,99069.47
2019-03-17T05:35:18.149Z,99058.41
2019-03-17T05:37:46.361Z,99056.86
2019-03-17T05:40:14.577Z,99062.33
2019-03-17T05:42:42.792Z,99053.12
2019-03-17T05:45:11.018Z,99066.65
2019-03-17T05:47:39.227Z,99062.41
2019-03-17T05:50:09.288Z,99068.53
2019-03-17T05:52:37.856Z,99065.08
2019-03-17T05:55:08.308Z,99035.48
2019-03-17T05:57:36.527Z,99060.39
2019-03-17T06:00:07.845Z,99068.98
2019-03-17T06:02:36.077Z,99058.30
2019-03-17T06:05:05.736Z,99063.75
2019-03-17T06:07:33.945Z,99053.08
2019-03-17T06:10:02.365Z,99063.75
2019-03-17T06:12:30.581Z,99067.75
2019-03-17T06:14:58.798Z,99066.41
2019-03-17T06:17:27.033Z,99068.98
2019-03-17T06:19:55.245Z,99068.40
2019-03-17T06:22:23.468Z,99063.25
2019-03-17T06:24:51.679Z,99073.86
2019-03-17T06:27:19.907Z,99071.39
2019-03-17T06:29:48.115Z,99033.59
2019-03-17T06:32:16.321Z,99069.34
2019-03-17T06:34:44.529Z,99065.58
2019-03-17T06:37:12.774Z,99048.00
2019-03-17T06:39:40.972Z,99059.00
2019-03-17T06:42:09.186Z,99143.70
2019-03-17T06:44:38.158Z,99159.28
2019-03-17T06:47:06.379Z,99134.98
2019-03-17T06:49:34.582Z,99171.28
2019-03-17T06:52:02.802Z,99176.91
2019-03-17T06:54:31.003Z,99181.92
2019-03-17T06:56:59.223Z,99179.73
2019-03-17T06:59:27.426Z,99183.89
2019-03-17T07:01:55.627Z,99179.48
2019-03-17T07:04:23.832Z,99178.84
2019-03-17T07:06:52.062Z,99185.41
2019-03-17T07:09:20.255Z,99189.77
2019-03-17T07:11:48.471Z,99205.09
2019-03-17T07:14:16.680Z,99212.94
2019-03-17T07:16:44.893Z,99217.93
2019-03-17T07:19:13.092Z,99223.45
2019-03-17T07:21:41.291Z,99219.46
2019-03-17T07:24:09.635Z,99230.27
2019-03-17T07:26:38.397Z,99227.11
2019-03-17T07:29:06.593Z,99233.59
2019-03-17T07:31:34.826Z,99255.69
2019-03-17T07:34:03.045Z,99245.89
2019-03-17T07:36:31.246Z,99251.06
2019-03-17T07:39:11.244Z,99252.55
2019-03-17T07:41:29.415Z,99262.52
2019-03-17T07:43:57.658Z,99275.14
2019-03-17T07:46:26.037Z,99274.00
2019-03-17T07:48:54.243Z,99276.81
2019-03-17T07:51:22.446Z,99286.94
2019-03-17T07:53:50.646Z,99288.09
2019-03-17T07:56:19.068Z,99278.46
2019-03-17T07:58:47.261Z,99284.95
2019-03-17T08:01:15.473Z,99275.66
2019-03-17T08:03:43.681Z,99279.93
2019-03-17T08:06:11.886Z,99272.50
2019-03-17T08:08:40.225Z,99279.48
2019-03-17T08:11:08.692Z,99281.12
2019-03-17T08:13:36.893Z,99249.72
2019-03-17T08:16:05.094Z,99283.12
2019-03-17T08:18:33.304Z,99286.28
2019-03-17T08:21:01.538Z,99294.60
2019-03-17T08:23:29.756Z,99307.07
2019-03-17T08:25:57.964Z,99311.53
2019-03-17T08:28:26.198Z,99327.00
2019-03-17T08:30:54.456Z,99331.81
2019-03-17T08:33:22.660Z,99326.84
2019-03-17T08:35:50.889Z,99332.16
2019-03-17T08:38:22.182Z,99340.78
2019-03-17T08:40:49.015Z,99343.12
2019-03-17T08:43:17.224Z,99347.13
2019-03-17T08:45:45.433Z,99353.11
2019-03-17T08:48:13.629Z,99352.42
2019-03-17T08:50:41.874Z,99356.58
2019-03-17T08:53:10.084Z,99356.73
2019-03-17T08:55:39.022Z,99368.71
2019-03-17T08:58:07.234Z,99361.41
2019-03-17T09:00:35.439Z,99384.52
2019-03-17T09:03:03.659Z,99386.48
2019-03-17T09:05:31.868Z,99387.67
2019-03-17T09:08:02.570Z,99393.30
2019-03-17T09:10:30.842Z,99388.64
2019-03-17T09:12:59.048Z,99395.97
2019-03-17T09:15:28.736Z,99400.63
2019-03-17T09:17:56.933Z,99413.95
2019-03-17T09:20:26.940Z,99406.62
2019-03-17T09:22:55.147Z,99419.77
2019-03-17T09:25:23.351Z,99425.09
2019-03-17T09:27:51.582Z,99424.39
2019-03-17T09:30:19.784Z,99423.06
2019-03-17T09:32:47.993Z,99426.89
2019-03-17T09:35:16.195Z,99427.55
2019-03-17T09:37:44.404Z,99427.89
2019-03-17T09:40:13.845Z,99437.90
2019-03-17T09:42:42.087Z,99440.54
2019-03-17T09:45:11.860Z,99430.91
2019-03-17T09:47:41.380Z,99428.39
2019-03-17T09:50:18.884Z,99435.88
2019-03-17T09:52:47.093Z,99431.22
2019-03-17T09:55:15.309Z,99429.55
2019-03-17T09:57:43.527Z,99433.72
2019-03-17T10:00:21.720Z,99442.54
2019-03-17T10:02:52.911Z,99445.03
2019-03-17T10:05:23.124Z,99439.55
2019-03-17T10:07:51.328Z,99453.33
2019-03-17T10:10:23.861Z,99453.16
2019-03-17T10:12:52.065Z,99457.00
2019-03-17T10:15:20.618Z,99452.14
2019-03-17T10:17:48.817Z,99453.64
2019-03-17T10:20:19.335Z,99464.12
2019-03-17T10:22:48.758Z,99467.42
2019-03-17T10:25:49.335Z,99447.91
2019-03-17T10:32:37.713Z,99471.67
2019-03-17T10:35:05.998Z,99461.50
2019-03-17T10:37:34.221Z,99478.80
2019-03-17T10:40:02.432Z,99482.09
2019-03-17T10:42:30.650Z,99480.91
2019-03-17T10:44:58.855Z,99483.23
2019-03-17T10:47:27.264Z,99484.84
2019-03-17T10:49:55.478Z,99491.16
2019-03-17T10:52:23.687Z,99485.17
2019-03-17T10:54:51.908Z,99484.98
2019-03-17T10:57:20.129Z,99482.80
2019-03-17T10:59:48.327Z,99498.75
2019-03-17T11:02:16.558Z,99495.48
2019-03-17T11:04:44.789Z,99502.25
2019-03-17T11:07:13.010Z,99503.80
2019-03-17T11:09:41.210Z,99521.17
2019-03-17T11:12:09.979Z,99517.11
2019-03-17T11:14:38.285Z,99485.46
2019-03-17T11:17:06.485Z,99510.42
2019-03-17T11:19:34.705Z,99516.07
2019-03-17T11:22:02.912Z,99522.08
2019-03-17T11:24:31.291Z,99508.13
2019-03-17T11:26:59.496Z,99525.59
2019-03-17T11:29:27.701Z,99523.86
2019-03-17T11:31:55.965Z,99509.98
2019-03-17T11:34:24.178Z,99518.03
2019-03-17T11:36:52.402Z,99527.41
2019-03-17T11:39:20.609Z,99523.97
2019-03-17T11:41:48.826Z,99536.73
2019-03-17T11:44:17.023Z,99534.09
2019-03-17T11:46:45.243Z,99541.61
2019-03-17T11:49:13.467Z,99560.63
2019-03-17T11:51:41.704Z,99542.63
2019-03-17T11:54:10.396Z,99553.55
2019-03-17T11:56:38.604Z,99534.59
2019-03-17T11:59:06.828Z,99553.99
2019-03-17T12:01:35.039Z,99548.69
2019-03-17T12:04:03.256Z,99550.38
2019-03-17T12:06:31.462Z,99556.75
2019-03-17T12:08:59.675Z,99549.56
2019-03-17T12:11:27.893Z,99545.27
2019-03-17T12:13:56.116Z,99560.94
2019-03-17T12:16:24.330Z,99557.47
2019-03-17T12:18:52.543Z,99581.92
2019-03-17T12:21:20.772Z,99571.34
2019-03-17T12:23:49.013Z,99571.48
2019-03-17T12:26:17.226Z,99547.73
2019-03-17T12:28:45.468Z,99578.70
2019-03-17T12:31:13.647Z,99580.09
2019-03-17T12:33:41.878Z,99581.92
2019-03-17T12:36:10.598Z,99573.25
2019-03-17T12:38:38.805Z,99559.95
2019-03-17T12:41:07.020Z,99589.03
2019-03-17T12:43:35.243Z,99581.38
2019-03-17T12:46:03.466Z,99580.34
2019-03-17T12:48:31.692Z,99577.73
2019-03-17T12:50:59.932Z,99584.08
2019-03-17T12:53:28.134Z,99567.78
2019-03-17T12:55:56.339Z,99573.63
2019-03-17T12:58:24.543Z,99574.37
2019-03-17T13:00:52.752Z,99568.34
2019-03-17T13:03:20.964Z,99566.53
2019-03-17T13:05:49.167Z,99582.66
2019-03-17T13:08:17.395Z,99574.64
2019-03-17T13:10:45.602Z,99578.42
2019-03-17T13:13:13.851Z,99571.33
2019-03-17T13:15:42.071Z,99592.39
2019-03-17T13:18:10.856Z,99613.27
2019-03-17T13:20:39.076Z,99596.84
2019-03-17T13:23:07.275Z,99613.58
2019-03-17T13:25:35.518Z,99602.67
2019-03-17T13:28:03.723Z,99614.31
2019-03-17T13:30:31.939Z,99627.75
2019-03-17T13:33:00.150Z,99622.53
2019-03-17T13:35:28.470Z,99617.51
2019-03-17T13:37:56.693Z,99622.64
2019-03-17T13:40:29.353Z,99626.09
2019-03-17T13:42:54.953Z,99613.30
2019-03-17T13:45:23.152Z,99624.50
2019-03-17T13:47:53.071Z,99622.91
2019-03-17T13:50:22.834Z,99617.89
2019-03-17T13:52:51.047Z,99630.84
2019-03-17T13:55:19.249Z,99628.45
2019-03-17T13:57:50.718Z,99630.17
2019-03-17T14:00:18.947Z,99645.66
2019-03-17T14:02:47.165Z,99640.72
2019-03-17T14:05:15.372Z,99650.06
2019-03-17T14:07:43.599Z,99653.13
2019-03-17T14:10:16.585Z,99648.41
2019-03-17T14:12:44.797Z,99659.55
2019-03-17T14:15:16.804Z,99660.66
2019-03-17T14:17:45.044Z,99653.73
2019-03-17T14:20:20.410Z,99656.73
2019-03-17T14:22:47.431Z,99659.66
2019-03-17T14:25:24.106Z,99646.46
2019-03-17T14:27:52.327Z,99662.85
2019-03-17T14:30:20.833Z,99681.77
2019-03-17T14:32:49.038Z,99698.64
2019-03-17T14:35:17.248Z,99697.16
2019-03-17T14:37:45.490Z,99703.39
2019-03-17T14:40:16.989Z,99711.94
2019-03-17T14:42:46.773Z,99712.48
2019-03-17T14:45:16.130Z,99722.17
2019-03-17T14:47:44.401Z,99710.03
2019-03-17T14:50:20.777Z,99720.87
2019-03-17T14:52:49.002Z,99726.23
2019-03-17T14:55:17.244Z,99740.23
2019-03-17T14:57:45.438Z,99730.39
2019-03-17T15:00:16.914Z,99729.23
2019-03-17T15:02:45.460Z,99733.91
2019-03-17T15:05:13.676Z,99744.25
2019-03-17T15:07:41.897Z,99730.38
2019-03-17T15:10:13.404Z,99731.20
2019-03-17T15:12:41.619Z,99732.71
2019-03-17T15:15:12.372Z,99738.05
2019-03-17T15:17:41.653Z,99754.22
2019-03-17T15:20:13.122Z,99764.27
2019-03-17T15:22:41.623Z,99763.41
2019-03-17T15:25:11.098Z,99774.58
2019-03-17T15:27:41.650Z,99769.17
2019-03-17T15:30:25.514Z,99778.79
2019-03-17T15:32:53.746Z,99784.39
2019-03-17T15:35:21.947Z,99787.17
2019-03-17T15:37:50.148Z,99796.47
2019-03-17T15:40:21.750Z,99800.22
2019-03-17T15:42:50.019Z,99802.36
2019-03-17T15:45:24.927Z,99806.69
2019-03-17T15:47:53.130Z,99803.69
2019-03-17T15:50:26.714Z,99798.55
2019-03-17T15:52:54.934Z,99799.73
2019-03-17T15:55:23.144Z,99807.61
2019-03-17T15:57:51.344Z,99800.14
2019-03-17T16:00:25.518Z,99803.70
2019-03-17T16:02:50.643Z,99803.70
2019-03-17T16:05:19.180Z,99813.45
2019-03-17T16:07:47.633Z,99814.91
2019-03-17T16:10:20.377Z,99817.75
2019-03-17T16:12:48.858Z,99821.77
2019-03-17T16:15:17.143Z,99830.80
2019-03-17T16:17:45.347Z,99828.98
2019-03-17T16:20:23.477Z,99826.51
2019-03-17T16:22:51.754Z,99832.21
2019-03-17T16:25:24.213Z,99838.06
2019-03-17T16:27:52.429Z,99842.89
2019-03-17T16:30:24.705Z,99846.23
2019-03-17T16:32:52.945Z,99856.22
2019-03-17T16:35:21.219Z,99862.55
2019-03-17T16:37:49.436Z,99853.40
2019-03-17T16:40:25.800Z,99868.88
2019-03-17T16:42:54.281Z,99869.04
2019-03-17T16:45:22.724Z,99867.86
2019-03-17T16:47:50.927Z,99883.33
2019-03-17T16:50:20.581Z,99870.30
2019-03-17T16:52:48.803Z,99874.14
2019-03-17T16:55:17.026Z,99879.61
2019-03-17T16:57:45.225Z,99895.58
2019-03-17T17:00:21.229Z,99888.16
2019-03-17T17:02:49.870Z,99895.63
2019-03-17T17:05:20.271Z,99893.59
2019-03-17T17:07:48.558Z,99894.15
2019-03-17T17:10:19.163Z,99897.11
2019-03-17T17:12:47.570Z,99899.21
2019-03-17T17:15:23.924Z,99912.30
2019-03-17T17:17:52.197Z,99910.42
2019-03-17T17:20:29.322Z,99916.45
2019-03-17T17:22:57.518Z,99909.16
2019-03-17T17:25:25.719Z,99911.23
2019-03-17T17:27:53.917Z,99920.05
2019-03-17T17:30:22.129Z,99923.85
2019-03-17T17:32:50.340Z,99921.98
2019-03-17T17:35:18.573Z,99930.94
2019-03-17T17:37:46.802Z,99931.92
2019-03-17T17:40:17.553Z,99933.95
2019-03-17T17:42:45.790Z,99941.30
2019-03-17T17:45:15.855Z,99938.78
2019-03-17T17:47:44.178Z,99943.61
2019-03-17T17:50:14.572Z,99951.78
2019-03-17T17:52:42.763Z,99949.77
2019-03-17T17:55:10.972Z,99963.75
2019-03-17T17:57:39.183Z,99958.57
2019-03-17T18:00:19.023Z,99973.55
2019-03-17T18:02:47.241Z,99973.00
2019-03-17T18:05:15.463Z,99975.81
2019-03-17T18:07:43.670Z,99971.77
2019-03-17T18:10:13.955Z,99976.41
2019-03-17T18:12:43.202Z,99954.31
2019-03-17T18:15:14.441Z,99986.20
2019-03-17T18:17:42.239Z,99990.95
2019-03-17T18:20:12.227Z,99954.63
2019-03-17T18:22:40.433Z,99989.14
2019-03-17T18:25:11.733Z,99979.48
2019-03-17T18:27:39.939Z,99989.38
2019-03-17T18:30:13.681Z,99986.87
2019-03-17T18:32:41.921Z,99990.34
2019-03-17T18:35:10.786Z,99987.48
2019-03-17T18:37:38.983Z,99983.49
2019-03-17T18:40:15.744Z,99983.09
2019-03-17T18:42:43.963Z,99989.74
2019-03-17T18:45:32.531Z,99985.97
2019-03-17T18:48:00.739Z,99988.33
2019-03-17T18:50:28.945Z,100008.61
2019-03-17T18:52:57.151Z,99995.41
2019-03-17T18:55:25.352Z,100001.22
2019-03-17T18:57:53.568Z,100000.37
2019-03-17T19:00:23.038Z,100000.53
2019-03-17T19:02:51.237Z,100012.11
2019-03-17T19:05:20.405Z,100015.75
2019-03-17T19:07:48.746Z,100020.86
2019-03-17T19:10:23.167Z,100026.49
2019-03-17T19:12:51.375Z,100022.59
2019-03-17T19:15:20.523Z,100023.36
2019-03-17T19:17:48.727Z,100039.37
2019-03-17T19:20:17.995Z,100031.13
2019-03-17T19:22:46.212Z,100030.98
2019-03-17T19:25:16.626Z,100033.09
2019-03-17T19:27:44.864Z,100026.45
2019-03-17T19:30:22.355Z,100028.87
2019-03-17T19:32:50.582Z,100005.84
2019-03-17T19:35:18.809Z,100034.22
2019-03-17T19:37:47.021Z,100043.84
2019-03-17T19:40:16.534Z,100051.28
2019-03-17T19:42:57.455Z,100037.58
2019-03-17T19:45:14.703Z,100043.94
2019-03-17T19:47:43.636Z,100051.42
2019-03-17T19:50:18.774Z,100037.20
2019-03-17T19:52:46.994Z,100053.97
2019-03-17T19:55:15.270Z,100042.50
2019-03-17T19:57:43.736Z,100041.95
2019-03-17T20:00:16.420Z,100042.11
2019-03-17T20:02:47.393Z,100036.23
2019-03-17T20:05:14.616Z,100039.52
2019-03-17T20:07:43.874Z,100039.66
2019-03-17T20:10:23.491Z,100012.73
2019-03-17T20:12:51.703Z,100042.55
2019-03-17T20:15:19.942Z,100050.92
2019-03-17T20:17:48.316Z,100044.65
2019-03-17T20:20:16.540Z,100059.79
2019-03-17T20:22:44.766Z,100051.48
2019-03-17T20:25:13.869Z,100049.94
2019-03-17T20:27:42.071Z,100054.27
2019-03-17T20:30:12.783Z,100062.02
2019-03-17T20:32:41.001Z,100061.94
2019-03-17T20:35:11.084Z,100059.01
2019-03-17T20:37:39.300Z,100058.58
2019-03-17T20:40:10.034Z,100048.89
2019-03-17T20:42:37.612Z,100058.52
2019-03-17T20:45:08.033Z,100062.63
2019-03-17T20:47:36.256Z,100057.38
2019-03-17T20:50:10.059Z,100066.53
2019-03-17T20:52:38.271Z,100047.88
2019-03-17T20:55:08.525Z,100059.81
2019-03-17T20:57:36.756Z,100051.72
2019-03-17T21:00:10.839Z,100057.59
2019-03-17T21:02:39.307Z,100052.16
2019-03-17T21:05:09.126Z,100073.20
2019-03-17T21:07:37.327Z,100075.36
2019-03-17T21:10:13.561Z,100076.78
2019-03-17T21:12:41.800Z,100074.66
2019-03-17T21:15:11.849Z,100075.84
2019-03-17T21:17:40.071Z,100084.16
2019-03-17T21:20:16.890Z,100074.92
2019-03-17T21:22:45.133Z,100073.89
2019-03-17T21:25:13.347Z,100079.38
2019-03-17T21:27:41.604Z,100081.28
2019-03-17T21:30:30.653Z,100062.02
2019-03-17T21:32:58.873Z,100077.87
2019-03-17T21:35:27.087Z,100078.85
2019-03-17T21:37:55.297Z,100065.28
2019-03-17T21:40:23.519Z,100076.09
2019-03-17T21:42:51.729Z,100076.90
2019-03-17T21:45:19.964Z,100072.21
2019-03-17T21:47:49.024Z,100069.42
2019-03-17T21:50:20.727Z,100082.69
2019-03-17T21:52:49.062Z,100069.27
2019-03-17T21:55:17.309Z,100067.92
2019-03-17T21:57:45.554Z,100074.91
2019-03-17T22:00:17.604Z,100042.15
2019-03-17T22:02:45.821Z,100063.50
2019-03-17T22:05:14.131Z,100068.77
2019-03-17T22:07:49.266Z,100068.77
2019-03-17T22:10:22.161Z,100072.96
2019-03-17T22:12:51.327Z,100058.07
2019-03-17T22:15:19.545Z,100056.83
2019-03-17T22:17:47.779Z,100064.44
2019-03-17T22:20:16.164Z,100060.33
2019-03-17T22:22:44.378Z,100062.62
2019-03-17T22:25:13.624Z,100048.30
2019-03-17T22:27:41.843Z,100067.83
2019-03-17T22:30:15.388Z,100072.39
2019-03-17T22:32:43.607Z,100063.81
2019-03-17T22:35:11.844Z,100070.70
2019-03-17T22:37:40.048Z,100077.46
2019-03-17T22:40:16.607Z,100066.99
2019-03-17T22:42:44.836Z,100067.91
2019-03-17T22:45:13.907Z,100061.56
2019-03-17T22:47:42.118Z,100061.16
2019-03-17T22:50:12.468Z,100063.23
2019-03-17T22:52:40.677Z,100069.94
2019-03-17T22:55:09.641Z,100071.45
2019-03-17T22:57:37.855Z,100072.85
2019-03-17T23:00:13.972Z,100073.48
2019-03-17T23:02:42.175Z,100075.41
2019-03-17T23:05:10.392Z,100076.82
2019-03-17T23:07:38.661Z,100069.30
2019-03-17T23:10:09.940Z,100075.31
2019-03-17T23:12:38.168Z,100084.33
2019-03-17T23:15:08.812Z,100087.47
2019-03-17T23:17:37.057Z,100087.70
2019-03-17T23:20:07.855Z,100102.70
2019-03-17T23:22:36.075Z,100102.29
2019-03-17T23:25:05.421Z,100102.29
2019-03-17T23:27:33.658Z,100104.32
2019-03-17T23:30:01.870Z,100105.83
2019-03-17T23:32:30.095Z,100100.52
2019-03-17T23:34:58.310Z,100086.16
2019-03-17T23:37:26.548Z,100104.17
2019-03-17T23:39:54.776Z,100119.31
2019-03-17T23:42:22.985Z,100110.47
2019-03-17T23:44:51.201Z,100100.70
2019-03-17T23:47:19.503Z,100103.50
2019-03-17T23:49:47.715Z,100104.11
2019-03-17T23:52:15.919Z,100102.92
2019-03-17T23:54:44.137Z,100111.28
2019-03-17T23:57:12.359Z,100104.23
2019-03-17T23:59:40.573Z,100113.58
